Etusivu
METAR-TAF:

METAR-TAF

Lentoasemat :

L.O. Simenstad Municipal Airport

Osceola, Wisconsin, Yhdysvallat

Leveyspiiri: 45-18-31N, Pituuspiiri: 092-41-24W, korkeus merenpinnasta: 275 m

Tämänhetkinen sää

Tämä raportti tehtiin 32 minuuttia sitten, kello 16.55 UTC
Tuuli 9 kn luoteesta
Lämpötila 7°C
Kosteus 81%
Ilmanpaine 1020 hPa
Näkyvyys: 16.1 km
Hajonneita pilviä 2700 ft:n korkeudessa
Pilvistä 3200 ft:n korkeudessa

METAR: KOEO 161655Z AUTO 32009KT 10SM BKN027 OVC032 07/04 A3013 RMK AO2 T00730036

Aika: 12:27 (17:27 UTC)


TAF: puuttuu

Säähavainnot ja -ennusteet yli 4000 lentoasemalta (METAR- ja TAF-raportit).

Käytössä olevat sääasemat on merkitty karttaan keltaisilla ja punaisilla pisteillä.

Aseta hiiri pisteen päälle nähdäksesi sääaseman nimen.

Klikkaa sitten nähdäksesi säähavainnot ja -ennusteet.

Kartan vaihtaminen: klikkaa mustalla rastilla varustettuja vihreitä pisteitä, niin voit zoomata sisään; viivalla varustettua vihreää pistettä, niin voit zoomata ulos tai vihreitä nuolia, niin pääset viereisille kartoille.


METAR-TAF: